sensor_id;sensor_type;location;lat;lon;timestamp;temperature;humidity
16700;DHT22;8466;52.286;21.124;2023-07-31T00:01:28;16.80;99.90
16700;DHT22;8466;52.286;21.124;2023-07-31T00:03:56;16.70;99.90
16700;DHT22;8466;52.286;21.124;2023-07-31T00:06:25;16.70;99.90
16700;DHT22;8466;52.286;21.124;2023-07-31T00:08:54;16.70;99.90
16700;DHT22;8466;52.286;21.124;2023-07-31T00:11:23;16.60;99.90
16700;DHT22;8466;52.286;21.124;2023-07-31T00:13:53;16.60;99.90
16700;DHT22;8466;52.286;21.124;2023-07-31T00:16:22;16.60;99.90
16700;DHT22;8466;52.286;21.124;2023-07-31T00:18:52;16.50;99.90
16700;DHT22;8466;52.286;21.124;2023-07-31T00:21:21;16.50;99.90
16700;DHT22;8466;52.286;21.124;2023-07-31T00:23:49;16.40;99.90
16700;DHT22;8466;52.286;21.124;2023-07-31T00:26:18;16.40;99.90
16700;DHT22;8466;52.286;21.124;2023-07-31T00:28:47;16.30;99.90
16700;DHT22;8466;52.286;21.124;2023-07-31T00:31:16;16.30;99.90
16700;DHT22;8466;52.286;21.124;2023-07-31T00:33:45;16.30;99.90
16700;DHT22;8466;52.286;21.124;2023-07-31T00:36:15;16.30;99.90
16700;DHT22;8466;52.286;21.124;2023-07-31T00:38:45;16.20;99.90
16700;DHT22;8466;52.286;21.124;2023-07-31T00:41:13;16.20;99.90
16700;DHT22;8466;52.286;21.124;2023-07-31T00:43:42;16.20;99.90
16700;DHT22;8466;52.286;21.124;2023-07-31T00:46:11;16.20;99.90
16700;DHT22;8466;52.286;21.124;2023-07-31T00:48:40;16.20;99.90
16700;DHT22;8466;52.286;21.124;2023-07-31T00:51:09;16.20;99.90
16700;DHT22;8466;52.286;21.124;2023-07-31T00:53:40;16.20;99.90
16700;DHT22;8466;52.286;21.124;2023-07-31T00:56:11;16.20;99.90
16700;DHT22;8466;52.286;21.124;2023-07-31T00:58:40;16.20;99.90
16700;DHT22;8466;52.286;21.124;2023-07-31T01:01:09;16.20;99.90
16700;DHT22;8466;52.286;21.124;2023-07-31T01:03:38;16.20;99.90
16700;DHT22;8466;52.286;21.124;2023-07-31T01:06:15;16.10;99.90
16700;DHT22;8466;52.286;21.124;2023-07-31T01:08:54;16.10;99.90
16700;DHT22;8466;52.286;21.124;2023-07-31T01:11:27;16.00;99.90
16700;DHT22;8466;52.286;21.124;2023-07-31T01:13:57;16.00;99.90
16700;DHT22;8466;52.286;21.124;2023-07-31T01:16:26;16.00;99.90
16700;DHT22;8466;52.286;21.124;2023-07-31T01:18:55;15.90;99.90
16700;DHT22;8466;52.286;21.124;2023-07-31T01:24:23;15.80;99.90
16700;DHT22;8466;52.286;21.124;2023-07-31T01:27:04;15.70;99.90
16700;DHT22;8466;52.286;21.124;2023-07-31T01:29:38;15.70;99.90
16700;DHT22;8466;52.286;21.124;2023-07-31T01:32:08;15.70;99.90
16700;DHT22;8466;52.286;21.124;2023-07-31T01:34:38;15.70;99.90
16700;DHT22;8466;52.286;21.124;2023-07-31T01:37:08;15.70;99.90
16700;DHT22;8466;52.286;21.124;2023-07-31T01:39:36;15.60;99.90
16700;DHT22;8466;52.286;21.124;2023-07-31T01:42:07;15.70;99.90
16700;DHT22;8466;52.286;21.124;2023-07-31T01:44:36;15.70;99.90
16700;DHT22;8466;52.286;21.124;2023-07-31T01:47:05;15.70;99.90
16700;DHT22;8466;52.286;21.124;2023-07-31T01:49:34;15.70;99.90
16700;DHT22;8466;52.286;21.124;2023-07-31T01:52:03;15.60;99.90
16700;DHT22;8466;52.286;21.124;2023-07-31T01:54:32;15.60;99.90
16700;DHT22;8466;52.286;21.124;2023-07-31T01:57:01;15.60;99.90
16700;DHT22;8466;52.286;21.124;2023-07-31T01:59:31;15.60;99.90
16700;DHT22;8466;52.286;21.124;2023-07-31T02:02:00;15.60;99.90
16700;DHT22;8466;52.286;21.124;2023-07-31T02:04:29;15.60;99.90
16700;DHT22;8466;52.286;21.124;2023-07-31T02:06:58;15.70;99.90
16700;DHT22;8466;52.286;21.124;2023-07-31T02:09:26;15.60;99.90
16700;DHT22;8466;52.286;21.124;2023-07-31T02:11:55;15.60;99.90
16700;DHT22;8466;52.286;21.124;2023-07-31T02:14:24;15.60;99.90
16700;DHT22;8466;52.286;21.124;2023-07-31T02:16:54;15.60;99.90
16700;DHT22;8466;52.286;21.124;2023-07-31T02:19:23;15.50;99.90
16700;DHT22;8466;52.286;21.124;2023-07-31T02:21:52;15.50;99.90
16700;DHT22;8466;52.286;21.124;2023-07-31T02:24:20;15.50;99.90
16700;DHT22;8466;52.286;21.124;2023-07-31T02:26:49;15.50;99.90
16700;DHT22;8466;52.286;21.124;2023-07-31T02:29:18;15.40;99.90
16700;DHT22;8466;52.286;21.124;2023-07-31T02:31:47;15.40;99.90
16700;DHT22;8466;52.286;21.124;2023-07-31T02:34:17;15.30;99.90
16700;DHT22;8466;52.286;21.124;2023-07-31T02:36:46;15.30;99.90
16700;DHT22;8466;52.286;21.124;2023-07-31T02:39:14;15.30;99.90
16700;DHT22;8466;52.286;21.124;2023-07-31T02:41:43;15.30;99.90
16700;DHT22;8466;52.286;21.124;2023-07-31T02:44:12;15.30;99.90
16700;DHT22;8466;52.286;21.124;2023-07-31T02:46:41;15.30;99.90
16700;DHT22;8466;52.286;21.124;2023-07-31T02:49:10;15.30;99.90
16700;DHT22;8466;52.286;21.124;2023-07-31T02:51:40;15.30;99.90
16700;DHT22;8466;52.286;21.124;2023-07-31T02:54:09;15.30;99.90
16700;DHT22;8466;52.286;21.124;2023-07-31T02:56:37;15.40;99.90
16700;DHT22;8466;52.286;21.124;2023-07-31T02:59:07;15.50;99.90
16700;DHT22;8466;52.286;21.124;2023-07-31T03:01:35;15.60;99.90
16700;DHT22;8466;52.286;21.124;2023-07-31T03:04:04;15.70;99.90
16700;DHT22;8466;52.286;21.124;2023-07-31T03:06:33;15.80;99.90
16700;DHT22;8466;52.286;21.124;2023-07-31T03:09:03;15.90;99.90
16700;DHT22;8466;52.286;21.124;2023-07-31T03:11:32;16.00;99.90
16700;DHT22;8466;52.286;21.124;2023-07-31T03:14:01;16.00;99.90
16700;DHT22;8466;52.286;21.124;2023-07-31T03:16:30;16.10;99.90
16700;DHT22;8466;52.286;21.124;2023-07-31T03:18:59;16.20;99.90
16700;DHT22;8466;52.286;21.124;2023-07-31T03:21:27;16.20;99.90
16700;DHT22;8466;52.286;21.124;2023-07-31T03:23:56;16.30;99.90
16700;DHT22;8466;52.286;21.124;2023-07-31T03:26:26;16.50;99.90
16700;DHT22;8466;52.286;21.124;2023-07-31T03:28:57;16.40;99.90
16700;DHT22;8466;52.286;21.124;2023-07-31T03:31:26;16.40;99.90
16700;DHT22;8466;52.286;21.124;2023-07-31T03:33:54;16.50;99.90
16700;DHT22;8466;52.286;21.124;2023-07-31T03:36:23;16.50;99.90
16700;DHT22;8466;52.286;21.124;2023-07-31T03:38:52;16.60;99.90
16700;DHT22;8466;52.286;21.124;2023-07-31T03:41:26;16.70;99.90
16700;DHT22;8466;52.286;21.124;2023-07-31T03:43:55;16.70;99.90
16700;DHT22;8466;52.286;21.124;2023-07-31T03:46:24;16.80;99.90
16700;DHT22;8466;52.286;21.124;2023-07-31T03:48:53;16.90;99.90
16700;DHT22;8466;52.286;21.124;2023-07-31T03:51:22;16.90;99.90
16700;DHT22;8466;52.286;21.124;2023-07-31T03:53:50;17.00;99.90
16700;DHT22;8466;52.286;21.124;2023-07-31T03:56:19;17.00;99.90
16700;DHT22;8466;52.286;21.124;2023-07-31T03:58:50;17.10;99.90
16700;DHT22;8466;52.286;21.124;2023-07-31T04:01:20;17.20;99.90
16700;DHT22;8466;52.286;21.124;2023-07-31T04:03:51;17.20;99.90
16700;DHT22;8466;52.286;21.124;2023-07-31T04:06:19;17.30;99.90
16700;DHT22;8466;52.286;21.124;2023-07-31T04:08:48;17.40;99.90
16700;DHT22;8466;52.286;21.124;2023-07-31T04:11:17;17.50;99.90
16700;DHT22;8466;52.286;21.124;2023-07-31T04:13:46;17.60;99.90
16700;DHT22;8466;52.286;21.124;2023-07-31T04:16:16;17.70;99.90
16700;DHT22;8466;52.286;21.124;2023-07-31T04:18:45;17.80;99.90
16700;DHT22;8466;52.286;21.124;2023-07-31T04:21:13;17.90;99.90
16700;DHT22;8466;52.286;21.124;2023-07-31T04:23:42;17.80;99.90
16700;DHT22;8466;52.286;21.124;2023-07-31T04:26:11;17.90;99.90
16700;DHT22;8466;52.286;21.124;2023-07-31T04:28:40;18.00;99.90
16700;DHT22;8466;52.286;21.124;2023-07-31T04:31:08;17.90;99.90
16700;DHT22;8466;52.286;21.124;2023-07-31T04:33:38;17.80;99.90
16700;DHT22;8466;52.286;21.124;2023-07-31T04:36:07;17.80;99.90
16700;DHT22;8466;52.286;21.124;2023-07-31T04:38:36;17.80;99.90
16700;DHT22;8466;52.286;21.124;2023-07-31T04:41:05;17.80;99.90
16700;DHT22;8466;52.286;21.124;2023-07-31T04:43:33;17.80;99.90
16700;DHT22;8466;52.286;21.124;2023-07-31T04:46:02;17.90;99.90
16700;DHT22;8466;52.286;21.124;2023-07-31T04:48:31;17.90;99.90
16700;DHT22;8466;52.286;21.124;2023-07-31T04:51:01;17.90;99.90
16700;DHT22;8466;52.286;21.124;2023-07-31T04:53:30;18.00;99.90
16700;DHT22;8466;52.286;21.124;2023-07-31T04:55:59;18.20;99.90
16700;DHT22;8466;52.286;21.124;2023-07-31T04:58:28;18.20;99.90
16700;DHT22;8466;52.286;21.124;2023-07-31T05:00:56;18.20;99.90
16700;DHT22;8466;52.286;21.124;2023-07-31T05:03:25;18.30;99.90
16700;DHT22;8466;52.286;21.124;2023-07-31T05:05:54;18.40;99.90
16700;DHT22;8466;52.286;21.124;2023-07-31T05:08:24;18.50;99.90
16700;DHT22;8466;52.286;21.124;2023-07-31T05:10:53;18.50;99.90
16700;DHT22;8466;52.286;21.124;2023-07-31T05:13:22;18.50;99.90
16700;DHT22;8466;52.286;21.124;2023-07-31T05:15:50;18.50;99.90
16700;DHT22;8466;52.286;21.124;2023-07-31T05:18:19;18.50;99.90
16700;DHT22;8466;52.286;21.124;2023-07-31T05:20:48;18.50;99.90
16700;DHT22;8466;52.286;21.124;2023-07-31T05:23:17;18.50;99.90
16700;DHT22;8466;52.286;21.124;2023-07-31T05:25:47;18.60;99.90
16700;DHT22;8466;52.286;21.124;2023-07-31T05:28:16;18.70;99.90
16700;DHT22;8466;52.286;21.124;2023-07-31T05:30:44;18.70;99.90
16700;DHT22;8466;52.286;21.124;2023-07-31T05:33:13;18.80;99.90
16700;DHT22;8466;52.286;21.124;2023-07-31T05:35:42;18.80;99.90
16700;DHT22;8466;52.286;21.124;2023-07-31T05:38:12;18.80;99.90
16700;DHT22;8466;52.286;21.124;2023-07-31T05:40:40;18.90;99.90
16700;DHT22;8466;52.286;21.124;2023-07-31T05:43:12;19.00;99.90
16700;DHT22;8466;52.286;21.124;2023-07-31T05:45:42;19.10;99.90
16700;DHT22;8466;52.286;21.124;2023-07-31T05:48:11;19.20;99.90
16700;DHT22;8466;52.286;21.124;2023-07-31T05:50:39;19.30;99.90
16700;DHT22;8466;52.286;21.124;2023-07-31T05:53:08;19.60;99.90
16700;DHT22;8466;52.286;21.124;2023-07-31T05:55:37;19.70;99.90
16700;DHT22;8466;52.286;21.124;2023-07-31T05:58:06;19.80;99.90
16700;DHT22;8466;52.286;21.124;2023-07-31T06:00:36;19.90;99.90
16700;DHT22;8466;52.286;21.124;2023-07-31T06:03:05;20.00;99.90
16700;DHT22;8466;52.286;21.124;2023-07-31T06:05:34;20.00;99.90
16700;DHT22;8466;52.286;21.124;2023-07-31T06:08:03;20.20;99.90
16700;DHT22;8466;52.286;21.124;2023-07-31T06:10:32;20.40;99.90
16700;DHT22;8466;52.286;21.124;2023-07-31T06:13:02;20.40;99.90
16700;DHT22;8466;52.286;21.124;2023-07-31T06:15:30;20.50;99.90
16700;DHT22;8466;52.286;21.124;2023-07-31T06:18:01;20.50;99.90
16700;DHT22;8466;52.286;21.124;2023-07-31T06:20:30;20.50;99.90
16700;DHT22;8466;52.286;21.124;2023-07-31T06:22:59;20.50;99.90
16700;DHT22;8466;52.286;21.124;2023-07-31T06:25:28;20.60;99.90
16700;DHT22;8466;52.286;21.124;2023-07-31T06:27:56;20.60;99.90
16700;DHT22;8466;52.286;21.124;2023-07-31T06:30:25;20.60;99.90
16700;DHT22;8466;52.286;21.124;2023-07-31T06:32:54;20.60;99.90
16700;DHT22;8466;52.286;21.124;2023-07-31T06:35:24;20.60;99.90
16700;DHT22;8466;52.286;21.124;2023-07-31T06:37:53;20.50;99.90
16700;DHT22;8466;52.286;21.124;2023-07-31T06:40:22;20.40;99.90
16700;DHT22;8466;52.286;21.124;2023-07-31T06:42:51;20.40;99.90
16700;DHT22;8466;52.286;21.124;2023-07-31T06:45:20;20.30;99.90
16700;DHT22;8466;52.286;21.124;2023-07-31T06:47:49;20.30;99.90
16700;DHT22;8466;52.286;21.124;2023-07-31T06:50:18;20.20;99.90
16700;DHT22;8466;52.286;21.124;2023-07-31T06:52:48;20.00;99.90
16700;DHT22;8466;52.286;21.124;2023-07-31T06:55:18;19.80;99.90
16700;DHT22;8466;52.286;21.124;2023-07-31T06:57:47;19.70;99.90
16700;DHT22;8466;52.286;21.124;2023-07-31T07:00:17;19.50;99.90
16700;DHT22;8466;52.286;21.124;2023-07-31T07:02:45;19.50;99.90
16700;DHT22;8466;52.286;21.124;2023-07-31T07:05:15;19.50;99.90
16700;DHT22;8466;52.286;21.124;2023-07-31T07:07:45;19.60;99.90
16700;DHT22;8466;52.286;21.124;2023-07-31T07:10:15;19.70;99.90
16700;DHT22;8466;52.286;21.124;2023-07-31T07:12:44;19.80;99.90
16700;DHT22;8466;52.286;21.124;2023-07-31T07:15:13;19.90;99.90
16700;DHT22;8466;52.286;21.124;2023-07-31T07:17:41;19.90;99.90
16700;DHT22;8466;52.286;21.124;2023-07-31T07:20:10;19.90;99.90
16700;DHT22;8466;52.286;21.124;2023-07-31T07:22:39;19.80;99.90
16700;DHT22;8466;52.286;21.124;2023-07-31T07:25:10;19.80;99.90
16700;DHT22;8466;52.286;21.124;2023-07-31T07:27:40;19.90;99.90
16700;DHT22;8466;52.286;21.124;2023-07-31T07:30:10;20.10;99.90
16700;DHT22;8466;52.286;21.124;2023-07-31T07:32:38;20.40;99.90
16700;DHT22;8466;52.286;21.124;2023-07-31T07:35:08;20.70;99.90
16700;DHT22;8466;52.286;21.124;2023-07-31T07:37:36;21.00;99.90
16700;DHT22;8466;52.286;21.124;2023-07-31T07:40:06;21.30;99.90
16700;DHT22;8466;52.286;21.124;2023-07-31T07:42:35;21.60;99.90
16700;DHT22;8466;52.286;21.124;2023-07-31T07:45:07;21.70;99.90
16700;DHT22;8466;52.286;21.124;2023-07-31T07:47:35;21.80;99.90
16700;DHT22;8466;52.286;21.124;2023-07-31T07:50:05;21.80;99.90
16700;DHT22;8466;52.286;21.124;2023-07-31T07:52:36;21.80;99.90
16700;DHT22;8466;52.286;21.124;2023-07-31T07:55:05;21.90;99.90
16700;DHT22;8466;52.286;21.124;2023-07-31T07:57:35;22.00;99.90
16700;DHT22;8466;52.286;21.124;2023-07-31T08:00:07;22.10;99.90
16700;DHT22;8466;52.286;21.124;2023-07-31T08:02:37;22.30;99.90
16700;DHT22;8466;52.286;21.124;2023-07-31T08:05:07;22.40;99.90
16700;DHT22;8466;52.286;21.124;2023-07-31T08:07:36;22.50;99.90
16700;DHT22;8466;52.286;21.124;2023-07-31T08:10:06;22.60;99.90
16700;DHT22;8466;52.286;21.124;2023-07-31T08:12:35;22.70;99.90
16700;DHT22;8466;52.286;21.124;2023-07-31T08:15:07;22.80;99.90
16700;DHT22;8466;52.286;21.124;2023-07-31T08:17:36;22.80;99.90
16700;DHT22;8466;52.286;21.124;2023-07-31T08:20:06;22.90;99.90
16700;DHT22;8466;52.286;21.124;2023-07-31T08:22:35;23.00;99.90
16700;DHT22;8466;52.286;21.124;2023-07-31T08:25:05;22.90;99.90
16700;DHT22;8466;52.286;21.124;2023-07-31T08:27:34;22.90;99.90
16700;DHT22;8466;52.286;21.124;2023-07-31T08:30:05;22.80;99.90
16700;DHT22;8466;52.286;21.124;2023-07-31T08:32:35;22.70;99.90
16700;DHT22;8466;52.286;21.124;2023-07-31T08:35:04;22.50;99.90
16700;DHT22;8466;52.286;21.124;2023-07-31T08:37:33;22.30;99.90
16700;DHT22;8466;52.286;21.124;2023-07-31T08:40:03;22.30;99.90
16700;DHT22;8466;52.286;21.124;2023-07-31T08:42:32;22.30;99.90
16700;DHT22;8466;52.286;21.124;2023-07-31T08:45:02;22.30;99.90
16700;DHT22;8466;52.286;21.124;2023-07-31T08:47:33;22.40;99.90
16700;DHT22;8466;52.286;21.124;2023-07-31T08:50:02;22.60;99.90
16700;DHT22;8466;52.286;21.124;2023-07-31T08:52:31;22.70;99.90
16700;DHT22;8466;52.286;21.124;2023-07-31T08:55:00;22.80;99.90
16700;DHT22;8466;52.286;21.124;2023-07-31T08:57:29;22.80;99.90
16700;DHT22;8466;52.286;21.124;2023-07-31T08:59:58;22.70;99.90
16700;DHT22;8466;52.286;21.124;2023-07-31T09:02:34;22.70;99.90
16700;DHT22;8466;52.286;21.124;2023-07-31T09:05:04;22.60;99.90
16700;DHT22;8466;52.286;21.124;2023-07-31T09:07:34;22.60;99.90
16700;DHT22;8466;52.286;21.124;2023-07-31T09:10:04;22.50;99.90
16700;DHT22;8466;52.286;21.124;2023-07-31T09:12:33;22.50;99.90
16700;DHT22;8466;52.286;21.124;2023-07-31T09:15:04;22.50;99.90
16700;DHT22;8466;52.286;21.124;2023-07-31T09:17:36;22.70;99.90
16700;DHT22;8466;52.286;21.124;2023-07-31T09:20:14;22.90;99.90
16700;DHT22;8466;52.286;21.124;2023-07-31T09:22:43;23.20;99.90
16700;DHT22;8466;52.286;21.124;2023-07-31T09:25:16;23.40;99.90
16700;DHT22;8466;52.286;21.124;2023-07-31T09:27:50;23.60;99.90
16700;DHT22;8466;52.286;21.124;2023-07-31T09:30:20;23.60;99.90
16700;DHT22;8466;52.286;21.124;2023-07-31T09:32:51;23.80;99.90
16700;DHT22;8466;52.286;21.124;2023-07-31T09:35:29;23.80;99.90
16700;DHT22;8466;52.286;21.124;2023-07-31T09:38:00;23.90;99.90
16700;DHT22;8466;52.286;21.124;2023-07-31T09:40:30;24.00;99.90
16700;DHT22;8466;52.286;21.124;2023-07-31T09:43:00;24.10;99.90
16700;DHT22;8466;52.286;21.124;2023-07-31T09:45:29;24.30;99.90
16700;DHT22;8466;52.286;21.124;2023-07-31T09:48:10;24.40;99.90
16700;DHT22;8466;52.286;21.124;2023-07-31T09:50:41;24.60;99.90
16700;DHT22;8466;52.286;21.124;2023-07-31T09:53:10;24.70;99.90
16700;DHT22;8466;52.286;21.124;2023-07-31T09:55:41;24.90;99.90
16700;DHT22;8466;52.286;21.124;2023-07-31T09:58:11;24.90;99.90
16700;DHT22;8466;52.286;21.124;2023-07-31T10:00:40;25.10;99.90
16700;DHT22;8466;52.286;21.124;2023-07-31T10:03:11;25.20;99.90
16700;DHT22;8466;52.286;21.124;2023-07-31T10:05:42;25.40;99.60
16700;DHT22;8466;52.286;21.124;2023-07-31T10:08:14;25.60;98.60
16700;DHT22;8466;52.286;21.124;2023-07-31T10:10:44;25.60;96.90
16700;DHT22;8466;52.286;21.124;2023-07-31T10:13:14;25.70;97.20
16700;DHT22;8466;52.286;21.124;2023-07-31T10:15:44;25.90;97.50
16700;DHT22;8466;52.286;21.124;2023-07-31T10:18:16;26.00;96.90
16700;DHT22;8466;52.286;21.124;2023-07-31T10:20:46;26.10;96.20
16700;DHT22;8466;52.286;21.124;2023-07-31T10:23:16;26.10;95.90
16700;DHT22;8466;52.286;21.124;2023-07-31T10:25:45;26.10;93.90
16700;DHT22;8466;52.286;21.124;2023-07-31T10:28:14;26.00;94.40
16700;DHT22;8466;52.286;21.124;2023-07-31T10:30:44;26.00;92.40
16700;DHT22;8466;52.286;21.124;2023-07-31T10:33:15;25.90;92.20
16700;DHT22;8466;52.286;21.124;2023-07-31T10:35:44;25.70;91.30
16700;DHT22;8466;52.286;21.124;2023-07-31T10:38:13;25.60;93.00
16700;DHT22;8466;52.286;21.124;2023-07-31T10:40:42;25.50;92.70
16700;DHT22;8466;52.286;21.124;2023-07-31T10:43:23;25.60;92.10
16700;DHT22;8466;52.286;21.124;2023-07-31T10:45:58;25.70;90.60
16700;DHT22;8466;52.286;21.124;2023-07-31T10:48:33;25.70;88.60
16700;DHT22;8466;52.286;21.124;2023-07-31T10:51:07;25.70;91.60
16700;DHT22;8466;52.286;21.124;2023-07-31T10:53:38;25.60;89.10
16700;DHT22;8466;52.286;21.124;2023-07-31T10:56:08;25.60;89.30
16700;DHT22;8466;52.286;21.124;2023-07-31T10:58:40;25.50;87.60
16700;DHT22;8466;52.286;21.124;2023-07-31T11:01:12;25.50;88.10
16700;DHT22;8466;52.286;21.124;2023-07-31T11:03:43;25.40;88.80
16700;DHT22;8466;52.286;21.124;2023-07-31T11:06:13;25.40;88.90
16700;DHT22;8466;52.286;21.124;2023-07-31T11:08:45;25.40;87.70
16700;DHT22;8466;52.286;21.124;2023-07-31T11:11:15;25.40;86.20
16700;DHT22;8466;52.286;21.124;2023-07-31T11:13:46;25.30;86.30
16700;DHT22;8466;52.286;21.124;2023-07-31T11:16:18;25.10;88.60
16700;DHT22;8466;52.286;21.124;2023-07-31T11:18:49;25.20;90.60
16700;DHT22;8466;52.286;21.124;2023-07-31T11:21:20;25.40;89.40
16700;DHT22;8466;52.286;21.124;2023-07-31T11:23:50;25.50;87.20
16700;DHT22;8466;52.286;21.124;2023-07-31T11:26:19;25.60;86.80
16700;DHT22;8466;52.286;21.124;2023-07-31T11:28:51;25.70;88.60
16700;DHT22;8466;52.286;21.124;2023-07-31T11:31:20;25.90;86.00
16700;DHT22;8466;52.286;21.124;2023-07-31T11:34:04;26.00;86.20
16700;DHT22;8466;52.286;21.124;2023-07-31T11:36:33;26.30;86.70
16700;DHT22;8466;52.286;21.124;2023-07-31T11:39:05;26.40;87.30
16700;DHT22;8466;52.286;21.124;2023-07-31T11:41:34;26.50;82.50
16700;DHT22;8466;52.286;21.124;2023-07-31T11:44:03;26.60;81.70
16700;DHT22;8466;52.286;21.124;2023-07-31T11:46:51;26.50;84.00
16700;DHT22;8466;52.286;21.124;2023-07-31T11:49:22;26.50;83.10
16700;DHT22;8466;52.286;21.124;2023-07-31T11:51:51;26.40;81.30
16700;DHT22;8466;52.286;21.124;2023-07-31T11:54:20;26.30;85.10
16700;DHT22;8466;52.286;21.124;2023-07-31T11:56:49;26.30;81.80
16700;DHT22;8466;52.286;21.124;2023-07-31T11:59:18;26.40;87.40
16700;DHT22;8466;52.286;21.124;2023-07-31T12:01:47;26.40;83.50
16700;DHT22;8466;52.286;21.124;2023-07-31T12:04:17;26.50;84.30
16700;DHT22;8466;52.286;21.124;2023-07-31T12:06:48;26.50;85.00
16700;DHT22;8466;52.286;21.124;2023-07-31T12:09:17;26.60;82.90
16700;DHT22;8466;52.286;21.124;2023-07-31T12:11:47;26.60;79.90
16700;DHT22;8466;52.286;21.124;2023-07-31T12:14:20;26.60;81.50
16700;DHT22;8466;52.286;21.124;2023-07-31T12:16:54;26.50;82.80
16700;DHT22;8466;52.286;21.124;2023-07-31T12:19:25;26.60;83.10
16700;DHT22;8466;52.286;21.124;2023-07-31T12:21:57;26.60;80.50
16700;DHT22;8466;52.286;21.124;2023-07-31T12:24:26;26.60;82.80
16700;DHT22;8466;52.286;21.124;2023-07-31T12:26:55;26.60;79.10
16700;DHT22;8466;52.286;21.124;2023-07-31T12:29:33;26.40;81.10
16700;DHT22;8466;52.286;21.124;2023-07-31T12:32:20;26.40;82.60
16700;DHT22;8466;52.286;21.124;2023-07-31T12:34:49;26.30;80.60
16700;DHT22;8466;52.286;21.124;2023-07-31T12:37:20;26.30;82.10
16700;DHT22;8466;52.286;21.124;2023-07-31T12:39:49;26.20;83.40
16700;DHT22;8466;52.286;21.124;2023-07-31T12:42:18;26.20;84.40
16700;DHT22;8466;52.286;21.124;2023-07-31T12:44:47;26.20;83.30
16700;DHT22;8466;52.286;21.124;2023-07-31T12:47:16;26.30;82.00
16700;DHT22;8466;52.286;21.124;2023-07-31T12:49:45;26.30;84.40
16700;DHT22;8466;52.286;21.124;2023-07-31T12:52:13;26.30;83.30
16700;DHT22;8466;52.286;21.124;2023-07-31T12:54:44;26.30;84.10
16700;DHT22;8466;52.286;21.124;2023-07-31T12:57:12;26.30;85.10
16700;DHT22;8466;52.286;21.124;2023-07-31T12:59:41;26.20;85.70
16700;DHT22;8466;52.286;21.124;2023-07-31T13:02:10;26.30;86.10
16700;DHT22;8466;52.286;21.124;2023-07-31T13:04:39;26.30;86.20
16700;DHT22;8466;52.286;21.124;2023-07-31T13:07:08;26.30;83.60
16700;DHT22;8466;52.286;21.124;2023-07-31T13:09:36;26.20;81.40
16700;DHT22;8466;52.286;21.124;2023-07-31T13:12:07;26.00;84.00
16700;DHT22;8466;52.286;21.124;2023-07-31T13:14:37;25.90;86.20
16700;DHT22;8466;52.286;21.124;2023-07-31T13:17:06;25.90;87.20
16700;DHT22;8466;52.286;21.124;2023-07-31T13:19:34;25.80;85.80
16700;DHT22;8466;52.286;21.124;2023-07-31T13:22:04;25.70;86.60
16700;DHT22;8466;52.286;21.124;2023-07-31T13:24:32;25.60;84.70
16700;DHT22;8466;52.286;21.124;2023-07-31T13:27:01;25.50;85.50
16700;DHT22;8466;52.286;21.124;2023-07-31T13:29:32;25.40;85.00
16700;DHT22;8466;52.286;21.124;2023-07-31T13:32:02;25.30;86.10
16700;DHT22;8466;52.286;21.124;2023-07-31T13:34:31;25.30;85.90
16700;DHT22;8466;52.286;21.124;2023-07-31T13:37:13;25.20;86.40
16700;DHT22;8466;52.286;21.124;2023-07-31T13:39:42;25.20;82.80
16700;DHT22;8466;52.286;21.124;2023-07-31T13:42:11;25.10;82.50
16700;DHT22;8466;52.286;21.124;2023-07-31T13:44:41;25.10;80.90
16700;DHT22;8466;52.286;21.124;2023-07-31T13:47:10;25.10;81.80
16700;DHT22;8466;52.286;21.124;2023-07-31T13:49:40;25.00;81.20
16700;DHT22;8466;52.286;21.124;2023-07-31T13:52:10;25.00;81.30
16700;DHT22;8466;52.286;21.124;2023-07-31T13:54:39;25.10;81.60
16700;DHT22;8466;52.286;21.124;2023-07-31T13:57:10;25.20;78.90
16700;DHT22;8466;52.286;21.124;2023-07-31T13:59:39;25.50;80.00
16700;DHT22;8466;52.286;21.124;2023-07-31T14:02:09;25.70;82.40
16700;DHT22;8466;52.286;21.124;2023-07-31T14:04:38;26.00;83.00
16700;DHT22;8466;52.286;21.124;2023-07-31T14:07:06;26.10;78.30
16700;DHT22;8466;52.286;21.124;2023-07-31T14:09:35;26.10;77.10
16700;DHT22;8466;52.286;21.124;2023-07-31T14:12:05;26.00;78.60
16700;DHT22;8466;52.286;21.124;2023-07-31T14:14:34;25.80;78.40
16700;DHT22;8466;52.286;21.124;2023-07-31T14:17:03;25.70;80.30
16700;DHT22;8466;52.286;21.124;2023-07-31T14:19:34;25.60;79.40
16700;DHT22;8466;52.286;21.124;2023-07-31T14:22:04;25.60;78.20
16700;DHT22;8466;52.286;21.124;2023-07-31T14:24:37;25.40;79.30
16700;DHT22;8466;52.286;21.124;2023-07-31T14:27:06;25.30;77.60
16700;DHT22;8466;52.286;21.124;2023-07-31T14:29:36;25.10;76.90
16700;DHT22;8466;52.286;21.124;2023-07-31T14:32:05;24.90;77.90
16700;DHT22;8466;52.286;21.124;2023-07-31T14:34:35;24.90;79.00
16700;DHT22;8466;52.286;21.124;2023-07-31T14:37:25;24.80;80.00
16700;DHT22;8466;52.286;21.124;2023-07-31T14:39:55;24.80;79.80
16700;DHT22;8466;52.286;21.124;2023-07-31T14:42:23;24.90;80.80
16700;DHT22;8466;52.286;21.124;2023-07-31T14:44:52;25.00;82.00
16700;DHT22;8466;52.286;21.124;2023-07-31T14:47:21;25.30;81.40
16700;DHT22;8466;52.286;21.124;2023-07-31T14:49:51;25.40;80.80
16700;DHT22;8466;52.286;21.124;2023-07-31T14:52:20;25.50;82.10
16700;DHT22;8466;52.286;21.124;2023-07-31T14:54:49;25.50;83.10
16700;DHT22;8466;52.286;21.124;2023-07-31T14:57:18;25.60;83.10
16700;DHT22;8466;52.286;21.124;2023-07-31T14:59:47;25.70;80.30
16700;DHT22;8466;52.286;21.124;2023-07-31T15:02:16;25.70;82.00
16700;DHT22;8466;52.286;21.124;2023-07-31T15:04:48;25.70;81.80
16700;DHT22;8466;52.286;21.124;2023-07-31T15:07:18;26.10;82.10
16700;DHT22;8466;52.286;21.124;2023-07-31T15:09:47;26.30;79.60
16700;DHT22;8466;52.286;21.124;2023-07-31T15:12:16;26.40;80.70
16700;DHT22;8466;52.286;21.124;2023-07-31T15:14:45;26.40;83.30
16700;DHT22;8466;52.286;21.124;2023-07-31T15:17:14;26.10;81.70
16700;DHT22;8466;52.286;21.124;2023-07-31T15:19:42;25.80;82.00
16700;DHT22;8466;52.286;21.124;2023-07-31T15:22:16;25.40;82.20
16700;DHT22;8466;52.286;21.124;2023-07-31T15:24:52;25.20;85.80
16700;DHT22;8466;52.286;21.124;2023-07-31T15:27:24;25.00;83.00
16700;DHT22;8466;52.286;21.124;2023-07-31T15:29:53;24.80;84.40
16700;DHT22;8466;52.286;21.124;2023-07-31T15:36:10;24.30;87.80
16700;DHT22;8466;52.286;21.124;2023-07-31T15:38:39;24.30;86.00
16700;DHT22;8466;52.286;21.124;2023-07-31T15:41:09;24.10;87.10
16700;DHT22;8466;52.286;21.124;2023-07-31T15:43:38;24.00;88.60
16700;DHT22;8466;52.286;21.124;2023-07-31T15:46:07;24.00;89.60
16700;DHT22;8466;52.286;21.124;2023-07-31T15:48:36;24.10;90.40
16700;DHT22;8466;52.286;21.124;2023-07-31T15:51:05;24.10;91.10
16700;DHT22;8466;52.286;21.124;2023-07-31T15:53:36;24.20;87.80